Time;durP1;ratioP1;P1;durP2;ratioP2;P2;SDS_P1;SDS_P2;PMS_P1;PMS_P2;Temp;Humidity;BMP_temperature;BMP_pressure;BME280_temperature;BME280_humidity;BME280_pressure;Samples;Min_cycle;Max_cycle;Signal;HPM_P1;HPM_P2
2022/01/26 04:30:14;;;;;;;54.33;26.57;;;;;;;5.45;60.43;100275.28;8521354;22;20191;31
2022/01/26 04:33:37;;;;;;;55.33;25.70;;;;;;;5.44;59.97;100271.78;6887537;28;20227;-87
2022/01/26 04:37:06;;;;;;;61.60;28.17;;;;;;;5.36;60.75;100250.22;6899116;28;20236;-87
2022/01/26 04:40:35;;;;;;;61.70;27.20;;;;;;;5.14;61.29;100258.44;6896199;28;20216;-86
2022/01/26 04:44:01;;;;;;;61.77;27.40;;;;;;;5.27;61.24;100253.72;6906783;28;20243;-88
2022/01/26 04:47:23;;;;;;;61.97;28.63;;;;;;;5.39;61.19;100241.94;6899433;28;20195;-90
2022/01/26 04:50:46;;;;;;;68.33;27.80;;;;;;;5.11;61.68;100239.16;6899783;28;20237;-90
2022/01/26 04:54:08;;;;;;;73.53;28.33;;;;;;;5.13;61.17;100247.91;6898150;28;20277;-90
2022/01/26 04:57:30;;;;;;;66.77;29.07;;;;;;;5.51;60.73;100243.50;6897024;28;20240;-89
2022/01/26 05:00:51;;;;;;;63.03;27.63;;;;;;;5.12;60.97;100204.28;6899319;28;20754;-87
2022/01/26 05:04:13;;;;;;;74.73;29.63;;;;;;;5.13;60.85;100189.09;6897674;28;20680;-87
2022/01/26 05:07:36;;;;;;;74.33;29.57;;;;;;;5.08;61.70;100245.63;6897458;28;20212;-88
2022/01/26 05:10:59;;;;;;;74.90;30.20;;;;;;;5.21;61.53;100191.91;6901517;28;20222;-87
2022/01/26 05:14:23;;;;;;;74.67;30.40;;;;;;;5.23;61.48;100220.22;6908550;28;20197;-87
2022/01/26 05:17:45;;;;;;;64.97;29.33;;;;;;;5.06;61.74;100236.03;6932330;28;20224;-87
2022/01/26 05:21:10;;;;;;;71.30;29.50;;;;;;;5.24;61.62;100253.97;6937905;28;20229;-87
2022/01/26 05:24:33;;;;;;;71.13;30.13;;;;;;;5.05;61.25;100196.94;6934515;28;20201;-89
2022/01/26 05:27:55;;;;;;;64.00;28.97;;;;;;;5.58;60.67;100241.09;6947000;28;20311;-93
2022/01/26 05:31:16;;;;;;;62.37;27.20;;;;;;;4.85;61.35;100166.63;6974201;28;20227;-89
2022/01/26 05:34:38;;;;;;;68.80;27.37;;;;;;;4.76;61.39;100150.56;6986058;28;20207;-91
2022/01/26 05:38:00;;;;;;;61.53;28.90;;;;;;;5.19;61.52;100228.66;6973285;28;20251;-84
2022/01/26 05:41:23;;;;;;;71.70;29.00;;;;;;;4.58;61.66;100160.22;6924030;28;20247;-84
2022/01/26 05:44:45;;;;;;;67.50;28.03;;;;;;;5.14;61.79;100239.72;6924358;28;20197;-83
2022/01/26 05:48:10;;;;;;;68.73;28.60;;;;;;;4.86;60.93;100155.00;6950628;28;20210;-84
2022/01/26 05:51:33;;;;;;;58.70;26.73;;;;;;;5.25;60.35;100183.47;6955363;28;20251;-84
2022/01/26 05:54:54;;;;;;;71.83;28.43;;;;;;;5.29;60.71;100217.00;6951564;28;20230;-85
2022/01/26 05:58:18;;;;;;;72.43;29.53;;;;;;;5.35;60.94;100245.84;6956741;28;20236;-85
2022/01/26 06:01:39;;;;;;;67.30;27.87;;;;;;;5.39;61.22;100227.69;6960152;28;20709;-85
2022/01/26 06:05:01;;;;;;;64.30;28.60;;;;;;;5.54;59.60;100220.97;6964448;28;20199;-84
2022/01/26 06:08:23;;;;;;;69.20;28.93;;;;;;;5.58;60.01;100231.25;6967974;28;20200;-84
2022/01/26 06:11:45;;;;;;;71.20;28.63;;;;;;;5.36;60.58;100226.16;6962938;28;20686;-84
2022/01/26 06:15:09;;;;;;;63.07;28.43;;;;;;;5.67;60.25;100208.16;6962789;28;20554;-84
2022/01/26 06:18:30;;;;;;;73.67;28.50;;;;;;;5.33;60.13;100162.25;6979348;28;20231;-85
2022/01/26 06:21:52;;;;;;;61.17;28.27;;;;;;;5.51;60.35;100219.44;6978419;28;20218;-85
2022/01/26 06:25:15;;;;;;;75.87;29.03;;;;;;;4.62;60.15;100106.41;6975508;28;20225;-84
2022/01/26 06:28:36;;;;;;;62.70;27.30;;;;;;;5.22;60.41;100201.63;6975591;28;20216;-84
2022/01/26 06:31:59;;;;;;;66.93;27.53;;;;;;;4.65;60.67;100161.41;6975243;28;20234;-83
2022/01/26 06:35:21;;;;;;;64.57;26.57;;;;;;;5.38;60.49;100218.00;6975820;28;20249;-83
2022/01/26 06:38:45;;;;;;;57.50;27.33;;;;;;;4.50;60.91;100096.81;6976620;28;20265;-84
2022/01/26 06:42:12;;;;;;;61.73;28.67;;;;;;;5.23;61.34;100220.22;6976036;28;20224;-84
2022/01/26 06:45:39;;;;;;;64.23;28.93;;;;;;;4.37;61.40;100130.06;6975766;28;20227;-83
2022/01/26 06:52:43;;;;;;;65.03;30.40;;;;;;;4.97;60.28;100157.56;6975262;28;20216;-83
2022/01/26 06:56:05;;;;;;;59.83;27.53;;;;;;;5.03;60.10;100148.13;6975924;28;20208;-83
2022/01/26 06:59:27;;;;;;;68.17;27.27;;;;;;;5.64;59.86;100243.22;6979696;28;20290;-86
2022/01/26 07:02:48;;;;;;;73.90;27.23;;;;;;;5.12;61.04;100233.69;6979416;28;20223;-88
2022/01/26 07:06:11;;;;;;;66.30;30.17;;;;;;;5.12;61.69;100216.81;6979078;28;20226;-88
2022/01/26 07:09:33;;;;;;;75.83;30.33;;;;;;;5.20;61.16;100227.66;6978563;28;20308;-88
2022/01/26 07:12:55;;;;;;;73.53;30.03;;;;;;;4.98;61.53;100185.97;6978664;28;20222;-88
2022/01/26 07:24:06;;;;;;;68.80;28.20;;;;;;;4.71;61.96;100200.91;6818906;28;20749;-88
2022/01/26 07:27:28;;;;;;;83.87;29.73;;;;;;;4.92;61.79;100167.81;6902210;28;20205;-87
2022/01/26 07:30:50;;;;;;;77.47;30.93;;;;;;;5.38;61.36;100229.53;6961337;28;20577;-89
2022/01/26 07:34:14;;;;;;;73.83;30.53;;;;;;;4.64;62.27;100179.22;6958271;28;20196;-87
2022/01/26 07:37:35;;;;;;;72.87;29.20;;;;;;;4.80;62.20;100222.34;6962022;28;20220;-88
2022/01/26 07:40:58;;;;;;;56.57;26.60;;;;;;;4.87;61.08;100231.50;6959722;28;20223;-88
2022/01/26 07:44:26;;;;;;;62.33;27.70;;;;;;;5.21;61.11;100267.63;6963667;28;20219;-87
2022/01/26 07:47:51;;;;;;;48.67;26.23;;;;;;;4.33;61.53;100174.88;6961055;28;20195;-88
2022/01/26 07:51:13;;;;;;;48.87;24.57;;;;;;;4.62;60.61;100156.31;6959371;28;20289;-87
2022/01/26 07:54:35;;;;;;;55.37;26.50;;;;;;;5.23;59.95;100224.69;6961533;28;20205;-88
2022/01/26 07:57:58;;;;;;;57.83;26.53;;;;;;;4.72;60.40;100205.28;6985756;28;20239;-90
2022/01/26 08:01:20;;;;;;;63.77;28.20;;;;;;;4.57;60.79;100166.53;6988489;28;20231;-88
2022/01/26 08:04:42;;;;;;;58.00;27.87;;;;;;;5.56;60.29;100296.59;6924193;28;20202;-89
2022/01/26 08:08:04;;;;;;;50.27;26.13;;;;;;;4.99;60.76;100291.88;6918450;28;20224;-88
2022/01/26 08:11:28;;;;;;;59.47;30.97;;;;;;;5.60;59.88;100296.16;6941338;28;20219;-88
2022/01/26 08:14:51;;;;;;;70.13;34.97;;;;;;;4.47;60.16;100211.91;6958882;28;20211;-90
2022/01/26 08:18:13;;;;;;;52.07;28.77;;;;;;;4.54;61.14;100231.75;6971623;28;20266;-90
2022/01/26 08:21:34;;;;;;;78.33;40.53;;;;;;;4.60;60.28;100199.16;6943456;28;20246;-90
2022/01/26 08:24:56;;;;;;;61.67;31.50;;;;;;;4.93;60.10;100232.78;6971491;28;20659;-90
2022/01/26 08:28:23;;;;;;;63.57;31.10;;;;;;;4.79;60.66;100243.84;6972280;28;20209;-87
2022/01/26 08:31:46;;;;;;;65.00;29.90;;;;;;;4.95;60.53;100273.59;6956401;28;20236;-90
2022/01/26 08:35:08;;;;;;;63.10;29.97;;;;;;;5.07;60.28;100262.66;6950057;28;20207;-90
2022/01/26 08:38:30;;;;;;;64.90;33.53;;;;;;;5.49;59.79;100301.63;6943932;28;20220;-90
2022/01/26 08:41:52;;;;;;;59.43;27.70;;;;;;;5.45;59.91;100321.63;6944456;28;20221;-90
2022/01/26 08:45:14;;;;;;;52.03;26.87;;;;;;;5.88;59.12;100318.63;6947601;28;20195;-89
2022/01/26 08:48:38;;;;;;;57.10;26.17;;;;;;;5.67;59.12;100316.03;6952235;28;20205;-90
2022/01/26 08:51:59;;;;;;;58.30;27.30;;;;;;;4.96;59.03;100163.03;6954951;28;20248;-90
2022/01/26 08:55:21;;;;;;;57.60;28.83;;;;;;;5.65;58.71;100274.38;6956388;28;20202;-91
2022/01/26 08:58:43;;;;;;;57.20;27.20;;;;;;;5.07;59.61;100238.59;6980376;28;20232;-88
2022/01/26 09:02:05;;;;;;;57.80;27.00;;;;;;;5.04;61.03;100312.84;6970196;28;20606;-90
2022/01/26 09:05:28;;;;;;;62.63;28.93;;;;;;;4.94;61.02;100250.50;6949906;28;20203;-89
2022/01/26 09:08:58;;;;;;;61.00;28.10;;;;;;;4.91;60.64;100232.94;6961533;28;20198;-90
2022/01/26 09:12:22;;;;;;;65.20;29.90;;;;;;;4.78;60.44;100226.94;6962863;28;20217;-89
2022/01/26 09:15:43;;;;;;;63.13;28.90;;;;;;;5.40;60.32;100273.03;6957371;28;20724;-90
2022/01/26 09:19:11;;;;;;;60.30;29.37;;;;;;;4.76;61.46;100269.00;6965235;28;20223;-89
2022/01/26 09:22:34;;;;;;;72.90;29.67;;;;;;;5.16;61.70;100322.47;6958483;28;20269;-89
2022/01/26 09:25:56;;;;;;;61.97;27.83;;;;;;;5.54;60.86;100325.31;6963162;28;20222;-90
2022/01/26 09:29:17;;;;;;;69.27;30.37;;;;;;;5.27;60.87;100323.25;6963312;28;20290;-89
2022/01/26 09:32:39;;;;;;;56.37;27.63;;;;;;;5.35;61.09;100312.72;6975473;28;20228;-89
2022/01/26 09:36:01;;;;;;;77.63;30.03;;;;;;;4.88;61.10;100227.84;6974761;28;20269;-89
2022/01/26 09:39:24;;;;;;;72.37;29.73;;;;;;;5.67;60.99;100325.91;6975614;28;20729;-89
2022/01/26 09:42:47;;;;;;;60.80;29.67;;;;;;;5.32;61.45;100320.16;6976343;28;20705;-89
2022/01/26 09:46:12;;;;;;;63.27;29.57;;;;;;;5.24;60.91;100243.28;6975713;28;20207;-89
2022/01/26 09:49:35;;;;;;;72.20;30.17;;;;;;;5.39;60.27;100223.22;6975121;28;20210;-89
2022/01/26 09:52:57;;;;;;;64.37;28.77;;;;;;;6.07;60.00;100308.78;6968601;28;20225;-88
2022/01/26 09:56:20;;;;;;;66.20;29.00;;;;;;;5.96;59.13;100300.06;6956691;28;20628;-87
2022/01/26 09:59:42;;;;;;;74.33;30.03;;;;;;;5.21;60.61;100200.81;6957709;28;20233;-89
2022/01/26 10:03:05;;;;;;;73.83;29.90;;;;;;;5.34;60.46;100241.50;6953610;28;20761;-83
2022/01/26 10:06:28;;;;;;;75.30;30.53;;;;;;;5.89;60.36;100304.28;6956852;28;20405;-84
2022/01/26 10:10:08;;;;;;;63.23;28.57;;;;;;;5.83;59.71;100297.66;6968300;28;20674;-85
2022/01/26 10:17:27;;;;;;;56.10;26.80;;;;;;;6.04;59.35;100177.03;6974622;28;20202;-85
2022/01/26 10:20:50;;;;;;;50.73;25.00;;;;;;;6.32;58.29;100206.44;6982833;28;20243;-82
2022/01/26 10:24:12;;;;;;;59.73;28.43;;;;;;;6.25;57.28;100266.09;6984282;28;20572;-85
2022/01/26 10:27:41;;;;;;;53.57;26.87;;;;;;;6.06;58.49;100181.28;6987671;28;20217;-86
2022/01/26 10:31:13;;;;;;;60.63;28.33;;;;;;;6.17;58.20;100218.59;6985141;28;20239;-84
2022/01/26 10:34:35;;;;;;;55.83;27.50;;;;;;;6.27;58.05;100243.56;6979061;28;20218;-84
2022/01/26 10:37:57;;;;;;;62.37;29.47;;;;;;;6.02;56.79;100200.44;6979427;28;20226;-86
2022/01/26 10:41:22;;;;;;;155.43;86.00;;;;;;;6.65;58.00;100269.41;6980888;28;20253;-85
2022/01/26 10:44:50;;;;;;;55.53;28.17;;;;;;;6.78;56.96;100198.41;6979205;28;20232;-83
2022/01/26 10:48:25;;;;;;;55.00;27.67;;;;;;;6.56;55.82;100238.13;6977231;28;20208;-85
2022/01/26 10:51:56;;;;;;;61.77;28.37;;;;;;;6.19;56.72;100230.00;6980183;28;20229;-85
2022/01/26 10:55:17;;;;;;;52.87;27.73;;;;;;;5.78;57.44;100218.75;6977391;28;20204;-85
2022/01/26 10:58:40;;;;;;;57.90;27.03;;;;;;;5.83;58.01;100235.25;6973050;28;20237;-83
2022/01/26 11:02:03;;;;;;;59.03;27.63;;;;;;;6.20;57.66;100287.09;6947393;28;20314;-84
2022/01/26 11:05:26;;;;;;;48.77;25.07;;;;;;;6.20;57.29;100285.25;6947704;28;20236;-84
2022/01/26 11:08:49;;;;;;;50.13;25.60;;;;;;;5.67;57.91;100256.34;6957390;28;20215;-80
2022/01/26 11:12:12;;;;;;;52.43;25.20;;;;;;;5.80;58.23;100297.94;6959937;28;20223;-82
2022/01/26 11:15:34;;;;;;;49.60;23.80;;;;;;;5.46;58.17;100256.44;6960315;28;20670;-82
2022/01/26 11:19:50;;;;;;;50.57;25.43;;;;;;;5.91;58.52;100316.56;6959971;28;20223;-82
2022/01/26 11:23:50;;;;;;;50.67;24.67;;;;;;;5.43;60.57;100317.38;6936638;28;20226;-82
2022/01/26 11:27:13;;;;;;;54.67;24.70;;;;;;;5.06;60.01;100252.09;6976143;28;20604;-82
2022/01/26 11:30:37;;;;;;;48.83;24.93;;;;;;;5.69;59.17;100303.38;6981295;28;20238;-82
2022/01/26 11:34:01;;;;;;;46.20;22.67;;;;;;;5.49;58.56;100224.06;6975428;28;20204;-84
2022/01/26 11:37:36;;;;;;;44.80;22.27;;;;;;;5.31;60.11;100276.50;6930030;28;20204;-84
2022/01/26 11:48:23;;;;;;;43.47;22.90;;;;;;;5.59;59.53;100285.59;6959027;28;20212;-85
2022/01/26 11:51:46;;;;;;;46.37;23.33;;;;;;;4.90;61.20;100265.94;6975708;28;20231;-84
2022/01/26 11:55:24;;;;;;;46.13;21.47;;;;;;;5.81;59.45;100296.94;6976283;28;20199;-84
2022/01/26 11:58:50;;;;;;;43.53;22.80;;;;;;;5.89;58.69;100285.56;6976392;28;20222;-84
2022/01/26 12:02:24;;;;;;;50.03;23.63;;;;;;;6.11;58.51;100304.84;6970118;28;20294;-84
2022/01/26 12:05:50;;;;;;;53.60;25.33;;;;;;;6.04;58.52;100284.13;6960048;28;20236;-83
2022/01/26 12:09:12;;;;;;;48.83;23.70;;;;;;;5.75;59.38;100286.75;6956608;28;20283;-83
2022/01/26 12:12:35;;;;;;;45.27;23.33;;;;;;;5.20;59.60;100208.94;6953637;28;20228;-87
2022/01/26 12:16:06;;;;;;;44.57;23.43;;;;;;;5.80;59.56;100291.72;6949631;28;20233;-86
2022/01/26 12:19:34;;;;;;;56.27;23.73;;;;;;;5.02;60.77;100256.84;6949947;28;20235;-85
2022/01/26 12:38:03;;;;;;;45.20;22.23;;;;;;;5.45;59.45;100227.16;6901071;28;20207;-86
2022/01/26 12:41:31;;;;;;;39.47;20.73;;;;;;;5.70;59.31;100280.97;6977965;28;20353;-86
2022/01/26 12:45:00;;;;;;;41.13;20.97;;;;;;;5.25;59.12;100218.22;6977079;28;20202;-86
2022/01/26 12:48:22;;;;;;;41.27;21.07;;;;;;;5.24;58.99;100235.28;6978069;28;20222;-86
2022/01/26 12:51:47;;;;;;;44.17;21.67;;;;;;;5.76;59.10;100276.88;6978878;28;20232;-86
2022/01/26 12:55:20;;;;;;;54.40;22.60;;;;;;;5.55;60.06;100302.91;6978707;28;20265;-85
2022/01/26 12:58:43;;;;;;;46.23;22.33;;;;;;;5.35;60.30;100266.38;6979243;28;20552;-86
2022/01/26 13:02:05;;;;;;;42.50;21.50;;;;;;;5.53;59.49;100281.66;6979552;28;20222;-85
2022/01/26 13:05:27;;;;;;;43.03;21.47;;;;;;;4.86;60.49;100234.28;6969594;28;20210;-86
2022/01/26 13:08:52;;;;;;;40.83;20.47;;;;;;;4.49;60.47;100185.91;6946139;28;20210;-86
2022/01/26 13:12:15;;;;;;;35.23;18.67;;;;;;;5.77;59.03;100282.09;6928580;28;20238;-86
2022/01/26 13:15:43;;;;;;;42.17;20.00;;;;;;;5.35;59.19;100272.59;6922382;28;20880;-87
2022/01/26 13:19:32;;;;;;;35.33;18.70;;;;;;;5.25;58.94;100206.72;6922904;28;20230;-86
2022/01/26 13:23:06;;;;;;;32.87;18.27;;;;;;;5.37;58.74;100289.34;6951978;28;20223;-86
2022/01/26 13:26:48;;;;;;;35.80;18.87;;;;;;;5.21;59.52;100282.81;6960326;28;20337;-86
2022/01/26 13:30:21;;;;;;;32.77;17.63;;;;;;;4.94;60.00;100261.19;6960227;28;20188;-86
2022/01/26 13:34:27;;;;;;;34.57;19.83;;;;;;;5.13;58.63;100207.81;6971709;28;20275;-87
2022/01/26 13:38:04;;;;;;;34.73;19.10;;;;;;;5.65;58.04;100269.84;6964823;28;20200;-86
2022/01/26 13:41:38;;;;;;;35.13;18.67;;;;;;;5.53;57.66;100248.69;6957067;28;20260;-87
2022/01/26 13:49:14;;;;;;;41.67;20.60;;;;;;;5.07;59.06;100219.06;6940111;28;20207;-88
2022/01/26 13:52:44;;;;;;;39.63;20.47;;;;;;;5.68;59.05;100255.34;6971754;28;20309;-88
2022/01/26 13:56:14;;;;;;;35.60;19.50;;;;;;;6.33;58.61;100252.84;6973675;28;20203;-84
2022/01/26 13:59:44;;;;;;;30.43;16.87;;;;;;;6.32;57.44;100225.19;6979625;28;20222;-86
2022/01/26 14:03:47;;;;;;;37.63;19.83;;;;;;;6.62;57.71;100267.03;6984914;28;20233;-88
2022/01/26 14:07:09;;;;;;;37.33;18.50;;;;;;;6.01;58.42;100277.22;6984053;28;20211;-87
2022/01/26 14:10:35;;;;;;;37.57;20.10;;;;;;;4.17;61.37;100165.63;6983468;28;20222;-90
2022/01/26 14:14:01;;;;;;;40.57;19.33;;;;;;;5.23;61.34;100286.19;6986390;28;20218;-86
2022/01/26 14:17:34;;;;;;;37.87;21.07;;;;;;;5.17;59.89;100214.56;6986942;28;20214;-85
2022/01/26 14:21:10;;;;;;;31.33;16.53;;;;;;;4.50;61.24;100245.50;6992268;28;20514;-82
2022/01/26 14:24:50;;;;;;;32.43;17.27;;;;;;;4.76;61.60;100290.38;6971875;28;20208;-84
2022/01/26 14:28:14;;;;;;;33.30;17.07;;;;;;;5.14;60.43;100295.88;6943198;28;20205;-84
2022/01/26 14:31:56;;;;;;;28.40;15.90;;;;;;;3.95;63.29;100297.38;6975925;28;20227;-83
2022/01/26 15:30:34;;;;;;;27.00;14.00;;;;;;;4.55;61.01;100238.78;7056552;28;20202;-80
2022/01/26 15:34:10;;;;;;;29.00;16.07;;;;;;;3.73;60.64;100061.91;7058581;28;20193;-80
2022/01/26 15:41:26;;;;;;;44.77;21.90;;;;;;;4.42;61.30;100243.47;7052635;28;20229;-81
2022/01/26 15:45:03;;;;;;;27.30;14.67;;;;;;;3.74;61.03;100082.25;7045475;28;20289;-80
2022/01/26 15:52:13;;;;;;;29.13;16.33;;;;;;;4.28;60.07;100115.69;7055376;28;20226;-80
2022/01/26 16:04:16;;;;;;;33.20;16.63;;;;;;;4.74;61.71;100288.78;7059322;28;20285;-80
2022/01/26 16:07:01;;;;;;;32.47;15.67;;;;;;;4.21;61.67;100261.34;7058478;28;20201;-80
2022/01/26 16:21:24;;;;;;;29.73;16.17;;;;;;;4.82;61.21;100259.56;7023788;28;20194;-80
2022/01/26 18:04:39;;;;;;;27.73;16.57;;;;;;;5.08;59.69;100335.69;7007315;28;20692;-82
2022/01/26 18:15:37;;;;;;;38.00;19.87;;;;;;;4.05;58.96;100154.19;7007187;28;20203;-84
2022/01/26 18:26:30;;;;;;;32.87;19.10;;;;;;;5.48;59.28;100312.47;7025392;28;20209;-87
2022/01/26 18:46:20;;;;;;;29.37;16.20;;;;;;;4.09;60.33;100208.16;7025602;28;20211;-81
2022/01/26 18:51:55;;;;;;;34.33;18.07;;;;;;;3.83;60.68;100186.34;7017320;28;20198;-82
2022/01/26 18:55:17;;;;;;;182.57;58.73;;;;;;;4.56;60.23;100236.97;7006837;28;20207;-82
2022/01/26 18:58:39;;;;;;;61.70;25.63;;;;;;;4.53;59.23;100203.34;7030552;28;20205;-82
2022/01/26 19:02:03;;;;;;;42.20;20.70;;;;;;;4.91;59.76;100294.41;7027296;28;20674;-82
2022/01/26 19:05:25;;;;;;;30.63;17.80;;;;;;;3.94;60.58;100223.63;7020510;28;20202;-81
2022/01/26 19:08:47;;;;;;;33.37;17.73;;;;;;;4.67;60.85;100306.34;7019785;28;20197;-82
2022/01/26 19:12:12;;;;;;;35.47;18.53;;;;;;;4.58;59.66;100213.63;7013359;28;20206;-82
2022/01/26 19:15:34;;;;;;;32.03;16.93;;;;;;;4.06;60.44;100169.22;7005438;28;20671;-81
2022/01/26 19:19:07;;;;;;;34.63;17.80;;;;;;;4.40;59.50;100164.50;7029305;28;20221;-83
2022/01/26 19:22:57;;;;;;;30.80;18.27;;;;;;;4.85;59.74;100276.19;7033274;28;20237;-87
2022/01/26 19:26:25;;;;;;;34.23;17.37;;;;;;;4.61;60.31;100313.03;7033775;28;20677;-81
2022/01/26 19:44:43;;;;;;;36.23;19.07;;;;;;;4.35;59.84;100218.28;7033484;28;20222;-80
2022/01/26 19:52:01;;;;;;;44.43;20.60;;;;;;;4.79;59.21;100209.91;7039321;28;20198;-80
2022/01/26 19:55:25;;;;;;;37.63;18.33;;;;;;;5.00;59.60;100234.78;7038763;28;20229;-80
2022/01/26 19:58:47;;;;;;;40.30;19.97;;;;;;;5.28;59.38;100283.97;7039391;28;20262;-81
2022/01/26 20:02:09;;;;;;;35.47;17.83;;;;;;;4.12;60.00;100133.19;7038943;28;20218;-82
2022/01/26 20:05:33;;;;;;;38.70;20.00;;;;;;;4.30;59.96;100156.44;7038492;28;20197;-80
2022/01/26 20:09:00;;;;;;;37.40;18.17;;;;;;;4.58;60.88;100253.69;7037388;28;20210;-81
2022/01/26 20:12:34;;;;;;;35.23;19.07;;;;;;;4.81;60.75;100276.59;7038843;28;20197;-81
2022/01/26 20:15:56;;;;;;;33.53;18.17;;;;;;;3.88;60.45;100136.13;7022539;28;20237;-81
2022/01/26 20:19:19;;;;;;;34.97;18.33;;;;;;;3.66;61.46;100178.91;7038367;28;20201;-81
2022/01/26 20:22:41;;;;;;;30.07;16.87;;;;;;;4.06;60.50;100179.91;7038436;28;20259;-81
2022/01/26 20:26:07;;;;;;;35.13;18.07;;;;;;;4.15;60.59;100197.81;7017933;28;20211;-82
2022/01/26 20:29:36;;;;;;;34.20;18.33;;;;;;;5.08;59.84;100292.91;7010277;28;20203;-82
2022/01/26 20:32:57;;;;;;;34.00;17.83;;;;;;;4.99;59.25;100253.59;7009786;28;20214;-81
2022/01/26 20:36:20;;;;;;;35.87;16.80;;;;;;;4.34;59.60;100219.28;7009658;28;20210;-81
2022/01/26 20:39:42;;;;;;;33.13;18.10;;;;;;;3.58;60.39;100087.19;7010432;28;20210;-81
2022/01/26 20:43:06;;;;;;;31.50;16.50;;;;;;;4.76;59.42;100252.97;7012406;28;20238;-88
2022/01/26 20:46:33;;;;;;;38.33;18.90;;;;;;;4.30;59.14;100164.44;7014071;28;20717;-83
2022/01/26 20:49:56;;;;;;;32.87;17.70;;;;;;;5.01;59.03;100294.44;7035292;28;20206;-80
2022/01/26 20:53:18;;;;;;;38.87;18.03;;;;;;;4.95;58.58;100217.47;7037524;28;20206;-82
2022/01/26 20:56:40;;;;;;;33.67;16.93;;;;;;;5.56;58.64;100286.75;7037343;28;20208;-83
2022/01/26 21:00:02;;;;;;;34.33;18.73;;;;;;;5.00;58.86;100237.44;7037247;28;20209;-81
2022/01/26 21:03:26;;;;;;;35.07;18.07;;;;;;;4.60;58.82;100145.75;7027600;28;20605;-82
2022/01/26 21:06:48;;;;;;;43.73;21.20;;;;;;;4.70;59.36;100185.84;7037065;28;20205;-81
2022/01/26 21:10:12;;;;;;;35.97;18.30;;;;;;;5.28;59.13;100270.59;7036648;28;20572;-81
2022/01/26 21:13:34;;;;;;;49.17;24.97;;;;;;;5.17;59.47;100276.91;7036681;28;20201;-82
2022/01/26 21:16:56;;;;;;;38.47;18.47;;;;;;;4.27;60.00;100209.25;7036631;28;20209;-81
2022/01/26 21:20:21;;;;;;;35.47;17.87;;;;;;;4.41;60.09;100209.75;7019033;28;20208;-81
2022/01/26 21:23:43;;;;;;;36.37;19.33;;;;;;;5.06;60.31;100282.34;7036430;28;20693;-76
2022/01/26 21:27:05;;;;;;;37.27;18.70;;;;;;;4.97;59.41;100275.16;7035410;28;20220;-81
2022/01/26 21:30:28;;;;;;;37.73;18.17;;;;;;;5.00;58.86;100192.00;7036309;28;20210;-81
2022/01/26 21:33:50;;;;;;;38.50;19.37;;;;;;;5.33;58.51;100234.47;7036668;28;20209;-81
2022/01/26 21:37:13;;;;;;;36.07;17.47;;;;;;;5.22;58.76;100271.13;7036859;28;20214;-81
2022/01/26 21:40:35;;;;;;;33.63;17.63;;;;;;;4.72;58.97;100189.25;7036956;28;20214;-81
2022/01/26 21:43:57;;;;;;;34.67;16.03;;;;;;;4.69;58.53;100165.47;7035921;28;20587;-81
2022/01/26 21:47:28;;;;;;;33.47;18.27;;;;;;;4.59;58.60;100125.38;6972389;28;20238;-82
2022/01/26 21:50:50;;;;;;;30.17;16.80;;;;;;;3.90;59.37;100086.13;7010087;28;20197;-81
2022/01/26 21:54:13;;;;;;;34.27;18.33;;;;;;;5.05;60.07;100240.56;7014759;28;20195;-81
2022/01/26 21:57:35;;;;;;;39.73;18.90;;;;;;;4.25;59.26;100083.09;7019236;28;20210;-81
